createdAt,value
2023-02-15T00:01:23.022Z,21.37
2023-02-15T00:04:46.168Z,25.70
2023-02-15T00:07:47.897Z,22.23
2023-02-15T00:10:49.616Z,18.57
2023-02-15T00:13:51.335Z,22.87
2023-02-15T00:16:55.220Z,20.80
2023-02-15T00:19:56.950Z,21.10
2023-02-15T00:22:59.531Z,19.83
2023-02-15T00:26:11.516Z,23.43
2023-02-15T00:29:17.038Z,21.67
2023-02-15T00:32:19.206Z,22.50
2023-02-15T00:35:22.516Z,17.97
2023-02-15T00:38:24.228Z,17.37
2023-02-15T00:41:26.092Z,16.83
2023-02-15T00:44:28.038Z,18.67
2023-02-15T00:47:31.838Z,16.57
2023-02-15T00:50:33.525Z,17.60
2023-02-15T00:53:35.400Z,20.10
2023-02-15T00:56:37.131Z,20.23
2023-02-15T00:59:39.337Z,14.83
2023-02-15T01:02:41.012Z,22.73
2023-02-15T01:05:42.880Z,25.10
2023-02-15T01:08:48.352Z,20.47
2023-02-15T01:11:50.042Z,23.47
2023-02-15T01:14:51.715Z,23.97
2023-02-15T01:17:55.086Z,20.37
2023-02-15T01:20:57.172Z,20.47
2023-02-15T01:24:00.001Z,24.03
2023-02-15T01:27:01.649Z,23.73
2023-02-15T01:30:05.461Z,18.90
2023-02-15T01:33:07.211Z,21.40
2023-02-15T01:43:12.129Z,23.00
2023-02-15T01:46:16.005Z,20.80
2023-02-15T01:56:17.343Z,17.13
2023-02-15T01:59:25.545Z,18.67
2023-02-15T02:02:28.665Z,20.47
2023-02-15T02:05:30.844Z,17.40
2023-02-15T02:08:33.019Z,19.73
2023-02-15T02:11:35.704Z,19.40
2023-02-15T02:14:38.437Z,18.00
2023-02-15T02:17:45.943Z,17.77
2023-02-15T02:21:31.273Z,23.00
2023-02-15T02:25:04.227Z,19.53
2023-02-15T02:28:34.991Z,19.87
2023-02-15T02:31:56.447Z,20.03
2023-02-15T02:35:04.417Z,18.73
2023-02-15T02:38:27.873Z,19.53
2023-02-15T02:41:43.573Z,21.90
2023-02-15T02:44:50.721Z,18.17
2023-02-15T02:48:12.116Z,22.53
2023-02-15T02:51:15.095Z,19.30
2023-02-15T02:54:17.728Z,16.83
2023-02-15T02:57:21.339Z,18.37
2023-02-15T03:00:26.713Z,16.10
2023-02-15T03:03:32.450Z,18.00
2023-02-15T03:06:48.185Z,17.37
2023-02-15T03:09:54.066Z,19.10
2023-02-15T03:12:56.103Z,21.27
2023-02-15T03:16:18.379Z,14.97
2023-02-15T03:19:31.683Z,17.60
2023-02-15T03:22:58.040Z,18.33
2023-02-15T03:26:03.256Z,14.43
2023-02-15T03:29:31.353Z,18.17
2023-02-15T03:32:35.426Z,18.37
2023-02-15T03:35:48.791Z,18.97
2023-02-15T03:39:06.109Z,18.90
2023-02-15T03:42:27.743Z,16.97
2023-02-15T03:45:33.573Z,17.43
2023-02-15T03:48:42.164Z,25.30
2023-02-15T03:51:47.100Z,15.53
2023-02-15T03:54:50.315Z,22.37
2023-02-15T03:58:11.428Z,19.87
2023-02-15T04:01:59.378Z,29.90
2023-02-15T04:05:01.152Z,17.30
2023-02-15T04:08:03.323Z,18.10
2023-02-15T04:11:05.051Z,17.93
2023-02-15T04:14:26.844Z,17.27
2023-02-15T04:17:28.794Z,15.27
2023-02-15T04:20:53.284Z,17.07
2023-02-15T04:24:13.644Z,20.97
2023-02-15T04:27:16.311Z,12.67
2023-02-15T04:30:22.256Z,17.90
2023-02-15T04:33:24.105Z,20.53
2023-02-15T04:36:25.924Z,19.43
2023-02-15T04:39:27.741Z,14.83
2023-02-15T04:42:29.550Z,17.23
2023-02-15T04:45:31.386Z,16.47
2023-02-15T04:48:33.244Z,14.93
2023-02-15T04:51:35.057Z,17.10
2023-02-15T04:54:42.049Z,15.77
2023-02-15T04:57:43.823Z,15.20
2023-02-15T05:00:45.697Z,16.57
2023-02-15T05:03:47.755Z,20.67
2023-02-15T05:06:49.569Z,12.23
2023-02-15T05:09:51.285Z,17.80
2023-02-15T05:12:53.079Z,18.43
2023-02-15T05:33:15.094Z,16.60
2023-02-15T05:36:16.980Z,16.97
2023-02-15T05:39:19.027Z,21.67
2023-02-15T05:42:20.806Z,17.30
2023-02-15T05:45:22.581Z,19.93
2023-02-15T05:48:25.983Z,19.07
2023-02-15T05:51:27.760Z,21.43
2023-02-15T05:54:29.876Z,21.00
2023-02-15T05:57:32.142Z,20.77
2023-02-15T06:00:36.203Z,19.20
2023-02-15T06:03:39.434Z,18.53
2023-02-15T06:06:41.364Z,21.13
2023-02-15T06:09:43.135Z,20.27
2023-02-15T06:12:45.916Z,21.27
2023-02-15T06:15:49.925Z,19.97
2023-02-15T06:18:53.807Z,18.20
2023-02-15T06:21:55.671Z,19.87
2023-02-15T06:24:57.487Z,21.87
2023-02-15T06:27:59.258Z,33.50
2023-02-15T06:31:01.326Z,29.57
2023-02-15T06:34:03.447Z,31.60
2023-02-15T06:37:06.840Z,30.63
2023-02-15T06:40:09.617Z,25.47
2023-02-15T06:43:11.359Z,26.93
2023-02-15T06:46:13.138Z,26.27
2023-02-15T06:49:16.559Z,21.60
2023-02-15T06:52:18.371Z,22.30
2023-02-15T06:55:20.196Z,26.43
2023-02-15T06:58:22.050Z,26.63
2023-02-15T07:01:24.525Z,25.30
2023-02-15T07:04:26.447Z,24.37
2023-02-15T07:07:28.238Z,29.53
2023-02-15T07:10:30.081Z,27.47
2023-02-15T07:13:31.872Z,24.60
2023-02-15T07:16:33.659Z,23.40
2023-02-15T07:19:35.437Z,23.07
2023-02-15T07:22:38.095Z,25.40
2023-02-15T07:25:39.934Z,19.37
2023-02-15T07:28:41.785Z,20.90
2023-02-15T07:31:46.199Z,20.73
2023-02-15T07:34:48.036Z,28.70
2023-02-15T07:37:49.771Z,20.37
2023-02-15T07:40:51.738Z,21.00
2023-02-15T07:43:54.510Z,23.57
2023-02-15T07:46:56.324Z,23.40
2023-02-15T07:49:58.101Z,18.50
2023-02-15T07:53:03.954Z,19.70
2023-02-15T07:56:09.991Z,23.37
2023-02-15T07:59:11.838Z,18.50
2023-02-15T08:02:13.801Z,17.90
2023-02-15T08:05:17.866Z,23.97
2023-02-15T08:08:31.666Z,20.10
2023-02-15T08:11:36.450Z,26.87
2023-02-15T08:14:38.236Z,24.13
2023-02-15T08:17:41.324Z,19.57
2023-02-15T08:20:43.207Z,28.53
2023-02-15T08:23:45.221Z,20.63
2023-02-15T08:26:48.643Z,21.13
2023-02-15T08:29:50.449Z,21.60
2023-02-15T08:32:52.240Z,22.10
2023-02-15T08:35:54.018Z,24.23
2023-02-15T08:38:58.001Z,20.80
2023-02-15T08:42:00.081Z,21.83
2023-02-15T08:45:01.963Z,24.50
2023-02-15T08:48:03.957Z,31.27
2023-02-15T08:51:07.806Z,28.07
2023-02-15T08:54:12.965Z,18.53
2023-02-15T08:57:14.695Z,24.57
2023-02-15T09:00:17.109Z,21.03
2023-02-15T09:03:18.880Z,22.97
2023-02-15T09:06:21.753Z,21.03
2023-02-15T09:09:23.555Z,20.63
2023-02-15T09:12:25.322Z,25.20
2023-02-15T09:15:27.109Z,23.73
2023-02-15T09:18:30.308Z,26.70
2023-02-15T09:21:33.467Z,22.50
2023-02-15T09:24:35.413Z,24.83
2023-02-15T09:27:37.717Z,22.30
2023-02-15T09:30:39.647Z,27.87
2023-02-15T09:33:43.746Z,41.27
2023-02-15T09:36:46.655Z,29.83
2023-02-15T09:39:49.258Z,26.90
2023-02-15T09:43:23.032Z,30.00
2023-02-15T09:46:46.650Z,30.33
2023-02-15T09:50:35.122Z,36.10
2023-02-15T09:53:52.940Z,36.70
2023-02-15T09:57:01.884Z,29.40
2023-02-15T10:00:22.195Z,27.70
2023-02-15T10:03:42.223Z,31.40
2023-02-15T10:07:06.249Z,33.00
2023-02-15T10:10:10.755Z,31.33
2023-02-15T10:13:18.700Z,25.07
2023-02-15T10:16:46.909Z,29.33
2023-02-15T10:20:08.962Z,28.70
2023-02-15T10:23:23.018Z,29.60
2023-02-15T10:26:44.664Z,32.93
2023-02-15T10:29:54.448Z,28.03
2023-02-15T10:33:03.406Z,34.70
2023-02-15T10:36:36.150Z,31.43
2023-02-15T10:39:43.503Z,32.17
2023-02-15T10:42:45.217Z,28.03
2023-02-15T10:46:23.050Z,46.60
2023-02-15T10:49:25.037Z,33.57
2023-02-15T10:52:43.202Z,30.80
2023-02-15T10:56:09.895Z,30.43
2023-02-15T10:59:37.167Z,27.97
2023-02-15T11:02:52.503Z,32.90
2023-02-15T11:06:16.397Z,32.23
2023-02-15T11:09:21.833Z,32.10
2023-02-15T11:12:26.213Z,32.47
2023-02-15T11:15:50.141Z,27.03
2023-02-15T11:19:07.006Z,40.53
2023-02-15T11:22:11.515Z,29.93
2023-02-15T11:25:21.505Z,37.27
2023-02-15T11:28:56.064Z,35.60
2023-02-15T11:32:15.175Z,30.67
2023-02-15T11:35:49.884Z,30.40
2023-02-15T11:39:03.607Z,37.80
2023-02-15T11:42:18.046Z,32.87
2023-02-15T11:45:30.243Z,36.70
2023-02-15T11:48:33.587Z,29.63
2023-02-15T11:51:36.525Z,28.13
2023-02-15T11:54:46.078Z,30.33
2023-02-15T11:58:32.359Z,30.20
2023-02-15T12:01:45.108Z,28.07
2023-02-15T12:05:00.170Z,30.07
2023-02-15T12:08:05.180Z,27.63
2023-02-15T12:11:16.394Z,28.30
2023-02-15T12:14:18.157Z,34.00
2023-02-15T12:17:24.255Z,30.43
2023-02-15T12:20:31.834Z,32.63
2023-02-15T12:23:34.828Z,29.93
2023-02-15T12:26:38.156Z,32.23
2023-02-15T12:29:49.080Z,28.87
2023-02-15T12:32:54.776Z,27.03
2023-02-15T12:36:21.318Z,25.20
2023-02-15T12:39:28.479Z,28.80
2023-02-15T12:42:43.394Z,31.47
2023-02-15T12:45:45.358Z,32.30
2023-02-15T12:48:47.240Z,30.63
2023-02-15T12:51:54.902Z,32.77
2023-02-15T12:55:18.513Z,30.53
2023-02-15T12:58:24.624Z,24.57
2023-02-15T13:01:26.781Z,29.93
2023-02-15T13:04:30.474Z,30.10
2023-02-15T13:07:33.032Z,25.52
2023-02-15T13:10:53.696Z,25.88
2023-02-15T13:13:56.660Z,23.90
2023-02-15T13:17:01.510Z,25.58
2023-02-15T13:20:10.771Z,25.70
2023-02-15T13:23:26.283Z,26.42
2023-02-15T13:26:31.962Z,25.43
2023-02-15T13:29:38.248Z,20.30
2023-02-15T13:32:42.037Z,26.40
2023-02-15T13:35:59.620Z,25.20
2023-02-15T13:39:13.212Z,19.65
2023-02-15T13:42:38.978Z,28.80
2023-02-15T13:45:58.906Z,17.98
2023-02-15T13:49:21.073Z,19.15
2023-02-15T13:52:29.347Z,20.10
2023-02-15T13:55:39.789Z,18.30
2023-02-15T13:59:23.637Z,20.05
2023-02-15T14:02:43.753Z,16.30
2023-02-15T14:05:57.536Z,21.10
2023-02-15T14:09:14.528Z,21.25
2023-02-15T14:12:34.976Z,16.73
2023-02-15T14:15:59.027Z,21.67
2023-02-15T14:19:10.196Z,19.13
2023-02-15T14:22:30.283Z,23.88
2023-02-15T14:25:44.874Z,18.85
2023-02-15T14:29:13.160Z,19.55
2023-02-15T14:32:25.790Z,16.98
2023-02-15T14:35:30.264Z,19.60
2023-02-15T14:38:53.322Z,19.73
2023-02-15T14:42:00.866Z,21.90
2023-02-15T14:45:15.243Z,22.30
2023-02-15T14:48:31.234Z,24.13
2023-02-15T14:51:46.375Z,21.80
2023-02-15T14:54:48.376Z,21.45
2023-02-15T14:57:59.847Z,21.48
2023-02-15T15:01:12.002Z,22.65
2023-02-15T15:04:25.154Z,22.77
2023-02-15T15:07:37.769Z,20.70
2023-02-15T15:10:44.053Z,20.90
2023-02-15T15:14:04.454Z,19.37
2023-02-15T15:17:09.828Z,20.70
2023-02-15T15:20:14.829Z,25.20
2023-02-15T15:23:16.569Z,22.27
2023-02-15T15:26:28.261Z,26.00
2023-02-15T15:29:41.448Z,26.57
2023-02-15T15:32:55.550Z,24.53
2023-02-15T15:36:15.443Z,25.83
2023-02-15T15:39:51.431Z,24.73
2023-02-15T15:43:31.458Z,22.73
2023-02-15T15:47:10.959Z,23.30
2023-02-15T15:50:19.597Z,33.10
2023-02-15T15:53:27.540Z,24.93
2023-02-15T15:56:34.412Z,22.93
2023-02-15T15:59:36.176Z,24.47
2023-02-15T16:02:53.757Z,22.00
2023-02-15T16:05:56.539Z,27.33
2023-02-15T16:08:58.627Z,38.30
2023-02-15T16:12:02.712Z,22.37
2023-02-15T16:15:20.784Z,26.37
2023-02-15T16:18:26.303Z,26.53
2023-02-15T16:21:34.671Z,28.17
2023-02-15T16:24:47.620Z,29.67
2023-02-15T16:27:49.713Z,24.50
2023-02-15T16:31:23.577Z,27.53
2023-02-15T16:34:29.180Z,20.93
2023-02-15T16:37:35.918Z,26.70
2023-02-15T16:40:58.132Z,24.40
2023-02-15T16:44:07.420Z,20.80
2023-02-15T16:47:22.495Z,24.77
2023-02-15T16:50:33.821Z,18.63
2023-02-15T16:53:35.886Z,21.97
2023-02-15T16:56:37.861Z,20.63
2023-02-15T16:59:44.432Z,16.97
2023-02-15T17:03:15.731Z,22.77
2023-02-15T17:06:35.623Z,23.57
2023-02-15T17:09:37.495Z,25.83
2023-02-15T17:12:58.943Z,23.70
2023-02-15T17:16:01.031Z,25.87
2023-02-15T17:19:10.251Z,25.77
2023-02-15T17:22:20.043Z,24.00
2023-02-15T17:25:33.050Z,26.37
2023-02-15T17:28:35.475Z,30.97
2023-02-15T17:31:37.892Z,25.63
2023-02-15T17:34:44.444Z,28.87
2023-02-15T17:37:49.316Z,33.03
2023-02-15T17:40:51.073Z,27.77
2023-02-15T17:43:53.019Z,29.97
2023-02-15T17:46:54.914Z,28.40
2023-02-15T17:50:01.664Z,37.67
2023-02-15T17:53:04.066Z,32.37
2023-02-15T17:56:10.625Z,27.47
2023-02-15T17:59:14.100Z,34.13
2023-02-15T18:02:34.372Z,31.27
2023-02-15T18:05:55.081Z,34.17
2023-02-15T18:09:15.422Z,31.33
2023-02-15T18:12:22.399Z,36.40
2023-02-15T18:15:24.601Z,38.67
2023-02-15T18:18:26.674Z,28.03
2023-02-15T18:21:28.529Z,28.30
2023-02-15T18:24:30.328Z,24.40
2023-02-15T18:27:33.479Z,28.57
2023-02-15T18:30:35.300Z,33.17
2023-02-15T18:33:44.484Z,26.37
2023-02-15T18:36:47.649Z,35.13
2023-02-15T18:39:54.021Z,29.37
2023-02-15T18:42:57.153Z,33.80
2023-02-15T18:45:59.153Z,34.80
2023-02-15T18:49:00.961Z,34.43
2023-02-15T18:52:03.055Z,32.73
2023-02-15T18:55:16.449Z,25.83
2023-02-15T18:58:21.297Z,26.57
2023-02-15T19:01:23.111Z,28.97
2023-02-15T19:04:25.976Z,30.30
2023-02-15T19:07:29.867Z,31.13
2023-02-15T19:10:33.557Z,25.73
2023-02-15T19:13:36.259Z,33.53
2023-02-15T19:16:38.266Z,23.87
2023-02-15T19:19:40.235Z,32.17
2023-02-15T19:22:42.097Z,32.40
2023-02-15T19:25:43.924Z,29.60
2023-02-15T19:28:46.026Z,29.93
2023-02-15T19:31:48.971Z,37.73
2023-02-15T19:34:51.116Z,66.53
2023-02-15T19:37:58.776Z,55.33
2023-02-15T19:41:09.463Z,49.37
2023-02-15T19:44:11.211Z,41.17
2023-02-15T19:47:13.689Z,41.80
2023-02-15T19:50:18.293Z,32.70
2023-02-15T19:53:23.360Z,30.33
2023-02-15T19:56:26.879Z,32.10
2023-02-15T19:59:31.278Z,33.00
2023-02-15T20:02:33.035Z,28.93
2023-02-15T20:05:38.272Z,26.67
2023-02-15T20:08:42.018Z,32.10
2023-02-15T20:11:43.810Z,23.90
2023-02-15T20:14:45.571Z,27.87
2023-02-15T20:17:47.758Z,31.43
2023-02-15T20:20:52.281Z,28.47
2023-02-15T20:23:54.073Z,29.00
2023-02-15T20:26:55.908Z,21.17
2023-02-15T20:29:57.781Z,21.13
2023-02-15T20:32:59.614Z,20.17
2023-02-15T20:36:01.481Z,23.20
2023-02-15T20:39:10.812Z,23.13
2023-02-15T20:42:13.154Z,23.67
2023-02-15T20:45:20.798Z,24.83
2023-02-15T20:48:22.564Z,18.77
2023-02-15T20:51:24.458Z,24.77
2023-02-15T20:54:30.064Z,22.90
2023-02-15T20:57:31.985Z,26.43
2023-02-15T21:00:33.941Z,20.13
2023-02-15T21:03:35.775Z,21.17
2023-02-15T21:06:37.559Z,21.93
2023-02-15T21:09:39.344Z,23.27
2023-02-15T21:12:41.185Z,22.83
2023-02-15T21:15:45.662Z,29.57
2023-02-15T21:18:48.149Z,26.83
2023-02-15T21:25:18.959Z,32.47
2023-02-15T21:28:23.905Z,30.17
2023-02-15T21:31:26.168Z,23.40
2023-02-15T21:34:27.948Z,32.97
2023-02-15T21:37:35.225Z,28.03
2023-02-15T21:40:37.038Z,22.43
2023-02-15T21:43:57.496Z,21.17
2023-02-15T21:47:18.022Z,30.57
2023-02-15T21:50:41.081Z,34.13
2023-02-15T21:53:45.990Z,25.53
2023-02-15T21:56:50.800Z,31.40
2023-02-15T21:59:52.547Z,25.77
2023-02-15T22:02:58.183Z,24.17
2023-02-15T22:06:00.282Z,27.87
2023-02-15T22:09:01.989Z,27.67
2023-02-15T22:12:03.977Z,25.20
2023-02-15T22:15:06.542Z,23.17
2023-02-15T22:18:20.898Z,22.57
2023-02-15T22:21:22.638Z,25.33
2023-02-15T22:24:24.340Z,22.63
2023-02-15T22:27:27.905Z,19.97
2023-02-15T22:30:33.724Z,19.67
2023-02-15T22:33:35.574Z,19.10
2023-02-15T22:36:37.316Z,19.57
2023-02-15T22:39:39.435Z,23.40
2023-02-15T22:42:41.885Z,22.43
2023-02-15T22:45:43.644Z,22.40
2023-02-15T22:48:49.854Z,24.37
2023-02-15T22:51:51.875Z,25.83
2023-02-15T22:54:53.591Z,27.27
2023-02-15T22:57:57.419Z,24.00
2023-02-15T23:01:01.918Z,22.63
2023-02-15T23:04:04.591Z,23.43
2023-02-15T23:07:15.404Z,22.37
2023-02-15T23:10:22.365Z,23.90
2023-02-15T23:13:30.112Z,24.63
2023-02-15T23:16:34.453Z,27.73
2023-02-15T23:19:36.249Z,23.00
2023-02-15T23:22:37.992Z,26.10
2023-02-15T23:25:41.280Z,24.93
2023-02-15T23:28:43.281Z,21.13
2023-02-15T23:31:48.165Z,21.77
2023-02-15T23:34:49.994Z,25.83
2023-02-15T23:37:51.687Z,33.63
2023-02-15T23:41:18.334Z,24.70
2023-02-15T23:44:20.096Z,21.00
2023-02-15T23:47:49.977Z,24.50
2023-02-15T23:50:51.659Z,27.53
2023-02-15T23:53:53.416Z,26.73
